sensor_id;sensor_type;location;lat;lon;timestamp;pressure;altitude;pressure_sealevel;temperature;humidity
55590;BME280;41452;42.780;23.116;2023-11-21T00:02:21;94203.34;;;1.90;100.00
55590;BME280;41452;42.780;23.116;2023-11-21T00:04:48;94199.94;;;1.90;100.00
55590;BME280;41452;42.780;23.116;2023-11-21T00:07:13;94202.19;;;1.93;100.00
55590;BME280;41452;42.780;23.116;2023-11-21T00:09:40;94204.16;;;1.91;100.00
55590;BME280;41452;42.780;23.116;2023-11-21T00:12:06;94189.34;;;1.85;100.00
55590;BME280;41452;42.780;23.116;2023-11-21T00:14:36;94199.78;;;1.92;100.00
55590;BME280;41452;42.780;23.116;2023-11-21T00:17:01;94205.84;;;1.99;100.00
55590;BME280;41452;42.780;23.116;2023-11-21T00:19:27;94201.03;;;1.96;100.00
55590;BME280;41452;42.780;23.116;2023-11-21T00:21:52;94201.38;;;1.93;100.00
55590;BME280;41452;42.780;23.116;2023-11-21T00:24:18;94154.09;;;1.69;100.00
55590;BME280;41452;42.780;23.116;2023-11-21T00:26:43;94200.66;;;1.99;100.00
55590;BME280;41452;42.780;23.116;2023-11-21T00:29:08;94202.72;;;2.03;100.00
55590;BME280;41452;42.780;23.116;2023-11-21T00:31:34;94166.75;;;1.79;100.00
55590;BME280;41452;42.780;23.116;2023-11-21T00:34:02;94162.75;;;1.76;100.00
55590;BME280;41452;42.780;23.116;2023-11-21T00:36:31;94190.28;;;1.99;100.00
55590;BME280;41452;42.780;23.116;2023-11-21T00:38:57;94189.41;;;1.92;100.00
55590;BME280;41452;42.780;23.116;2023-11-21T00:41:22;94207.09;;;2.03;100.00
55590;BME280;41452;42.780;23.116;2023-11-21T00:43:47;94199.84;;;1.98;100.00
55590;BME280;41452;42.780;23.116;2023-11-21T00:46:13;94192.69;;;2.00;100.00
55590;BME280;41452;42.780;23.116;2023-11-21T00:48:38;94185.75;;;2.01;100.00
55590;BME280;41452;42.780;23.116;2023-11-21T00:51:04;94185.56;;;2.02;100.00
55590;BME280;41452;42.780;23.116;2023-11-21T00:53:31;94191.91;;;2.00;100.00
55590;BME280;41452;42.780;23.116;2023-11-21T00:55:57;94155.84;;;1.68;100.00
55590;BME280;41452;42.780;23.116;2023-11-21T00:58:25;94142.41;;;1.58;100.00
55590;BME280;41452;42.780;23.116;2023-11-21T01:00:51;94184.97;;;1.85;100.00
55590;BME280;41452;42.780;23.116;2023-11-21T01:03:16;94190.16;;;1.85;100.00
55590;BME280;41452;42.780;23.116;2023-11-21T01:05:42;94159.00;;;1.64;100.00
55590;BME280;41452;42.780;23.116;2023-11-21T01:08:07;94180.50;;;1.79;100.00
55590;BME280;41452;42.780;23.116;2023-11-21T01:10:33;94188.81;;;1.75;100.00
55590;BME280;41452;42.780;23.116;2023-11-21T01:12:59;94186.03;;;1.76;100.00
55590;BME280;41452;42.780;23.116;2023-11-21T01:15:25;94174.25;;;1.59;100.00
55590;BME280;41452;42.780;23.116;2023-11-21T01:17:51;94182.66;;;1.61;100.00
55590;BME280;41452;42.780;23.116;2023-11-21T01:20:17;94184.28;;;1.62;100.00
55590;BME280;41452;42.780;23.116;2023-11-21T01:22:43;94183.00;;;1.58;100.00
55590;BME280;41452;42.780;23.116;2023-11-21T01:25:09;94183.00;;;1.58;100.00
55590;BME280;41452;42.780;23.116;2023-11-21T01:27:36;94158.03;;;1.35;100.00
55590;BME280;41452;42.780;23.116;2023-11-21T01:30:03;94178.28;;;1.46;100.00
55590;BME280;41452;42.780;23.116;2023-11-21T01:32:28;94156.31;;;1.27;100.00
55590;BME280;41452;42.780;23.116;2023-11-21T01:34:54;94188.28;;;1.49;100.00
55590;BME280;41452;42.780;23.116;2023-11-21T01:37:21;94169.63;;;1.39;100.00
55590;BME280;41452;42.780;23.116;2023-11-21T01:39:47;94174.06;;;1.45;100.00
55590;BME280;41452;42.780;23.116;2023-11-21T01:42:13;94168.91;;;1.45;100.00
55590;BME280;41452;42.780;23.116;2023-11-21T01:44:39;94172.75;;;1.49;100.00
55590;BME280;41452;42.780;23.116;2023-11-21T01:47:05;94181.22;;;1.43;100.00
55590;BME280;41452;42.780;23.116;2023-11-21T01:49:36;94173.44;;;1.43;100.00
55590;BME280;41452;42.780;23.116;2023-11-21T01:52:03;94138.47;;;1.18;100.00
55590;BME280;41452;42.780;23.116;2023-11-21T01:54:29;94166.81;;;1.26;100.00
55590;BME280;41452;42.780;23.116;2023-11-21T01:57:01;94140.16;;;1.10;100.00
55590;BME280;41452;42.780;23.116;2023-11-21T01:59:32;94177.78;;;1.28;100.00
55590;BME280;41452;42.780;23.116;2023-11-21T02:01:59;94169.41;;;1.26;100.00
55590;BME280;41452;42.780;23.116;2023-11-21T02:04:24;94164.78;;;1.21;100.00
55590;BME280;41452;42.780;23.116;2023-11-21T02:06:50;94168.00;;;1.23;100.00
55590;BME280;41452;42.780;23.116;2023-11-21T02:09:16;94121.22;;;0.95;100.00
55590;BME280;41452;42.780;23.116;2023-11-21T02:11:42;94165.50;;;1.30;100.00
55590;BME280;41452;42.780;23.116;2023-11-21T02:14:09;94159.06;;;1.26;100.00
55590;BME280;41452;42.780;23.116;2023-11-21T02:16:35;94158.09;;;1.27;100.00
55590;BME280;41452;42.780;23.116;2023-11-21T02:19:02;94140.69;;;1.21;100.00
55590;BME280;41452;42.780;23.116;2023-11-21T02:21:29;94135.00;;;1.10;100.00
55590;BME280;41452;42.780;23.116;2023-11-21T02:23:55;94122.91;;;1.03;100.00
55590;BME280;41452;42.780;23.116;2023-11-21T02:26:21;94097.69;;;0.90;100.00
55590;BME280;41452;42.780;23.116;2023-11-21T02:28:46;94145.34;;;1.25;100.00
55590;BME280;41452;42.780;23.116;2023-11-21T02:31:11;94143.47;;;1.19;100.00
55590;BME280;41452;42.780;23.116;2023-11-21T02:33:37;94125.88;;;1.14;100.00
55590;BME280;41452;42.780;23.116;2023-11-21T02:36:03;94151.94;;;1.28;100.00
55590;BME280;41452;42.780;23.116;2023-11-21T02:38:29;94150.34;;;1.27;100.00
55590;BME280;41452;42.780;23.116;2023-11-21T02:40:57;94089.75;;;0.77;100.00
55590;BME280;41452;42.780;23.116;2023-11-21T02:43:23;94150.69;;;1.09;100.00
55590;BME280;41452;42.780;23.116;2023-11-21T02:45:48;94155.31;;;1.13;100.00
55590;BME280;41452;42.780;23.116;2023-11-21T02:48:14;94150.50;;;1.10;100.00
55590;BME280;41452;42.780;23.116;2023-11-21T02:50:39;94147.13;;;1.25;100.00
55590;BME280;41452;42.780;23.116;2023-11-21T02:53:05;94155.31;;;1.13;100.00
55590;BME280;41452;42.780;23.116;2023-11-21T02:55:33;94108.75;;;0.84;100.00
55590;BME280;41452;42.780;23.116;2023-11-21T02:58:00;94113.53;;;0.87;100.00
55590;BME280;41452;42.780;23.116;2023-11-21T03:00:25;94103.47;;;0.77;100.00
55590;BME280;41452;42.780;23.116;2023-11-21T03:02:51;94156.13;;;1.14;100.00
55590;BME280;41452;42.780;23.116;2023-11-21T03:05:16;94160.13;;;1.17;100.00
55590;BME280;41452;42.780;23.116;2023-11-21T03:07:41;94145.41;;;1.17;100.00
55590;BME280;41452;42.780;23.116;2023-11-21T03:10:08;94119.59;;;0.94;100.00
55590;BME280;41452;42.780;23.116;2023-11-21T03:12:40;94153.81;;;1.19;100.00
55590;BME280;41452;42.780;23.116;2023-11-21T03:15:06;94159.50;;;1.14;100.00
55590;BME280;41452;42.780;23.116;2023-11-21T03:17:31;94152.72;;;1.13;100.00
55590;BME280;41452;42.780;23.116;2023-11-21T03:19:59;94155.97;;;1.16;100.00
55590;BME280;41452;42.780;23.116;2023-11-21T03:22:25;94159.00;;;1.19;100.00
55590;BME280;41452;42.780;23.116;2023-11-21T03:24:50;94151.41;;;1.18;100.00
55590;BME280;41452;42.780;23.116;2023-11-21T03:27:15;94156.56;;;1.18;100.00
55590;BME280;41452;42.780;23.116;2023-11-21T03:29:41;94154.06;;;1.24;100.00
55590;BME280;41452;42.780;23.116;2023-11-21T03:32:07;94143.38;;;1.12;100.00
55590;BME280;41452;42.780;23.116;2023-11-21T03:34:32;94118.28;;;0.98;100.00
55590;BME280;41452;42.780;23.116;2023-11-21T03:36:58;94107.84;;;0.91;100.00
55590;BME280;41452;42.780;23.116;2023-11-21T03:39:24;94102.84;;;0.90;100.00
55590;BME280;41452;42.780;23.116;2023-11-21T03:41:51;94085.47;;;0.84;100.00
55590;BME280;41452;42.780;23.116;2023-11-21T03:44:17;94136.94;;;1.08;100.00
55590;BME280;41452;42.780;23.116;2023-11-21T03:46:43;94098.47;;;0.90;100.00
55590;BME280;41452;42.780;23.116;2023-11-21T03:49:09;94133.03;;;1.12;100.00
55590;BME280;41452;42.780;23.116;2023-11-21T03:51:35;94112.56;;;1.03;100.00
55590;BME280;41452;42.780;23.116;2023-11-21T03:54:00;94122.50;;;1.14;100.00
55590;BME280;41452;42.780;23.116;2023-11-21T03:56:25;94139.72;;;1.22;100.00
55590;BME280;41452;42.780;23.116;2023-11-21T03:58:51;94133.56;;;1.23;100.00
55590;BME280;41452;42.780;23.116;2023-11-21T04:01:22;94136.34;;;1.21;100.00
55590;BME280;41452;42.780;23.116;2023-11-21T04:03:51;94097.78;;;0.97;100.00
55590;BME280;41452;42.780;23.116;2023-11-21T04:06:17;94117.84;;;1.09;100.00
55590;BME280;41452;42.780;23.116;2023-11-21T04:08:44;94135.88;;;1.18;100.00
55590;BME280;41452;42.780;23.116;2023-11-21T04:11:10;94141.50;;;1.21;100.00
55590;BME280;41452;42.780;23.116;2023-11-21T04:13:39;94139.00;;;1.28;100.00
55590;BME280;41452;42.780;23.116;2023-11-21T04:16:08;94137.94;;;1.22;100.00
55590;BME280;41452;42.780;23.116;2023-11-21T04:18:36;94137.66;;;1.17;100.00
55590;BME280;41452;42.780;23.116;2023-11-21T04:21:01;94142.03;;;1.17;100.00
55590;BME280;41452;42.780;23.116;2023-11-21T04:23:29;94098.91;;;0.94;100.00
55590;BME280;41452;42.780;23.116;2023-11-21T04:25:54;94131.06;;;1.14;100.00
55590;BME280;41452;42.780;23.116;2023-11-21T04:28:22;94093.50;;;0.89;100.00
55590;BME280;41452;42.780;23.116;2023-11-21T04:30:48;94144.16;;;1.13;100.00
55590;BME280;41452;42.780;23.116;2023-11-21T04:33:13;94145.34;;;1.10;100.00
55590;BME280;41452;42.780;23.116;2023-11-21T04:35:38;94129.59;;;0.97;100.00
55590;BME280;41452;42.780;23.116;2023-11-21T04:38:04;94136.69;;;1.03;100.00
55590;BME280;41452;42.780;23.116;2023-11-21T04:40:29;94140.34;;;1.09;100.00
55590;BME280;41452;42.780;23.116;2023-11-21T04:42:55;94135.41;;;0.99;100.00
55590;BME280;41452;42.780;23.116;2023-11-21T04:45:22;94155.31;;;1.13;100.00
55590;BME280;41452;42.780;23.116;2023-11-21T04:47:47;94156.47;;;1.11;100.00
55590;BME280;41452;42.780;23.116;2023-11-21T04:50:13;94147.47;;;1.07;100.00
55590;BME280;41452;42.780;23.116;2023-11-21T04:52:38;94117.75;;;0.88;100.00
55590;BME280;41452;42.780;23.116;2023-11-21T04:55:04;94125.59;;;0.94;100.00
55590;BME280;41452;42.780;23.116;2023-11-21T04:57:31;94093.13;;;0.77;100.00
55590;BME280;41452;42.780;23.116;2023-11-21T04:59:57;94129.44;;;0.99;100.00
55590;BME280;41452;42.780;23.116;2023-11-21T05:02:23;94150.50;;;1.10;100.00
55590;BME280;41452;42.780;23.116;2023-11-21T05:04:48;94112.69;;;0.94;100.00
55590;BME280;41452;42.780;23.116;2023-11-21T05:07:14;94142.75;;;1.10;100.00
55590;BME280;41452;42.780;23.116;2023-11-21T05:09:43;94117.28;;;0.99;100.00
55590;BME280;41452;42.780;23.116;2023-11-21T05:12:11;94114.44;;;0.94;100.00
55590;BME280;41452;42.780;23.116;2023-11-21T05:14:36;94091.31;;;0.78;100.00
55590;BME280;41452;42.780;23.116;2023-11-21T05:17:02;94136.22;;;1.14;100.00
55590;BME280;41452;42.780;23.116;2023-11-21T05:19:29;94116.94;;;1.02;100.00
55590;BME280;41452;42.780;23.116;2023-11-21T05:21:54;94124.66;;;1.10;100.00
55590;BME280;41452;42.780;23.116;2023-11-21T05:24:20;94137.13;;;1.22;100.00
55590;BME280;41452;42.780;23.116;2023-11-21T05:26:45;94145.16;;;1.27;100.00
55590;BME280;41452;42.780;23.116;2023-11-21T05:29:10;94126.13;;;1.05;100.00
55590;BME280;41452;42.780;23.116;2023-11-21T05:31:36;94163.00;;;1.22;100.00
55590;BME280;41452;42.780;23.116;2023-11-21T05:34:03;94139.88;;;1.05;100.00
55590;BME280;41452;42.780;23.116;2023-11-21T05:36:30;94110.78;;;0.88;100.00
55590;BME280;41452;42.780;23.116;2023-11-21T05:38:55;94150.69;;;1.24;100.00
55590;BME280;41452;42.780;23.116;2023-11-21T05:41:21;94112.94;;;1.00;100.00
55590;BME280;41452;42.780;23.116;2023-11-21T05:43:46;94143.47;;;1.19;100.00
55590;BME280;41452;42.780;23.116;2023-11-21T05:46:12;94150.25;;;1.20;100.00
55590;BME280;41452;42.780;23.116;2023-11-21T05:48:38;94115.00;;;1.04;100.00
55590;BME280;41452;42.780;23.116;2023-11-21T05:51:06;94129.28;;;1.15;100.00
55590;BME280;41452;42.780;23.116;2023-11-21T05:53:31;94104.81;;;1.03;100.00
55590;BME280;41452;42.780;23.116;2023-11-21T05:55:56;94140.00;;;1.27;100.00
55590;BME280;41452;42.780;23.116;2023-11-21T05:58:22;94160.75;;;1.19;100.00
55590;BME280;41452;42.780;23.116;2023-11-21T06:00:48;94145.16;;;1.12;100.00
55590;BME280;41452;42.780;23.116;2023-11-21T06:03:13;94150.84;;;1.22;100.00
55590;BME280;41452;42.780;23.116;2023-11-21T06:05:38;94165.84;;;1.27;100.00
55590;BME280;41452;42.780;23.116;2023-11-21T06:08:04;94144.25;;;1.20;100.00
55590;BME280;41452;42.780;23.116;2023-11-21T06:10:29;94170.31;;;1.33;100.00
55590;BME280;41452;42.780;23.116;2023-11-21T06:12:55;94158.72;;;1.29;100.00
55590;BME280;41452;42.780;23.116;2023-11-21T06:15:20;94168.38;;;1.35;100.00
55590;BME280;41452;42.780;23.116;2023-11-21T06:17:47;94173.72;;;1.33;100.00
55590;BME280;41452;42.780;23.116;2023-11-21T06:20:17;94136.34;;;1.21;100.00
55590;BME280;41452;42.780;23.116;2023-11-21T06:22:44;94143.19;;;1.29;100.00
55590;BME280;41452;42.780;23.116;2023-11-21T06:25:12;94166.94;;;1.47;100.00
55590;BME280;41452;42.780;23.116;2023-11-21T06:27:42;94143.66;;;1.32;100.00
55590;BME280;41452;42.780;23.116;2023-11-21T06:30:09;94174.44;;;1.57;100.00
55590;BME280;41452;42.780;23.116;2023-11-21T06:32:37;94173.66;;;1.57;100.00
55590;BME280;41452;42.780;23.116;2023-11-21T06:35:03;94168.00;;;1.68;100.00
55590;BME280;41452;42.780;23.116;2023-11-21T06:37:30;94169.25;;;1.57;100.00
55590;BME280;41452;42.780;23.116;2023-11-21T06:39:56;94137.03;;;1.45;100.00
55590;BME280;41452;42.780;23.116;2023-11-21T06:42:23;94174.50;;;1.79;100.00
55590;BME280;41452;42.780;23.116;2023-11-21T06:44:49;94153.72;;;1.72;100.00
55590;BME280;41452;42.780;23.116;2023-11-21T06:47:17;94170.75;;;1.96;100.00
55590;BME280;41452;42.780;23.116;2023-11-21T06:49:43;94176.00;;;2.03;100.00
55590;BME280;41452;42.780;23.116;2023-11-21T06:52:08;94121.31;;;1.76;100.00
55590;BME280;41452;42.780;23.116;2023-11-21T06:54:34;94150.03;;;1.96;100.00
55590;BME280;41452;42.780;23.116;2023-11-21T06:57:00;94177.91;;;2.31;100.00
55590;BME280;41452;42.780;23.116;2023-11-21T06:59:25;94183.97;;;2.38;100.00
55590;BME280;41452;42.780;23.116;2023-11-21T07:01:51;94186.53;;;2.38;100.00
55590;BME280;41452;42.780;23.116;2023-11-21T07:04:16;94163.97;;;2.32;100.00
55590;BME280;41452;42.780;23.116;2023-11-21T07:06:42;94174.53;;;2.52;100.00
55590;BME280;41452;42.780;23.116;2023-11-21T07:09:08;94167.88;;;2.64;100.00
55590;BME280;41452;42.780;23.116;2023-11-21T07:11:34;94170.28;;;2.65;100.00
55590;BME280;41452;42.780;23.116;2023-11-21T07:14:00;94172.38;;;2.77;100.00
55590;BME280;41452;42.780;23.116;2023-11-21T07:16:38;94150.94;;;2.68;100.00
55590;BME280;41452;42.780;23.116;2023-11-21T07:19:04;94154.47;;;2.82;100.00
55590;BME280;41452;42.780;23.116;2023-11-21T07:21:35;94175.69;;;2.92;100.00
55590;BME280;41452;42.780;23.116;2023-11-21T07:24:02;94180.97;;;2.99;100.00
55590;BME280;41452;42.780;23.116;2023-11-21T07:26:28;94147.09;;;2.85;100.00
55590;BME280;41452;42.780;23.116;2023-11-21T07:28:54;94169.81;;;3.05;100.00
55590;BME280;41452;42.780;23.116;2023-11-21T07:31:20;94170.84;;;3.11;100.00
55590;BME280;41452;42.780;23.116;2023-11-21T07:33:47;94171.06;;;3.09;100.00
55590;BME280;41452;42.780;23.116;2023-11-21T07:36:14;94176.34;;;3.22;100.00
55590;BME280;41452;42.780;23.116;2023-11-21T07:38:39;94165.78;;;3.24;100.00
55590;BME280;41452;42.780;23.116;2023-11-21T07:41:05;94149.16;;;3.18;100.00
55590;BME280;41452;42.780;23.116;2023-11-21T07:43:34;94173.63;;;3.37;100.00
55590;BME280;41452;42.780;23.116;2023-11-21T07:46:04;94148.81;;;3.28;100.00
55590;BME280;41452;42.780;23.116;2023-11-21T07:48:33;94171.56;;;3.54;100.00
55590;BME280;41452;42.780;23.116;2023-11-21T07:50:59;94175.78;;;3.62;100.00
55590;BME280;41452;42.780;23.116;2023-11-21T07:53:25;94159.41;;;3.61;100.00
55590;BME280;41452;42.780;23.116;2023-11-21T07:55:51;94165.66;;;3.74;100.00
55590;BME280;41452;42.780;23.116;2023-11-21T07:58:17;94145.78;;;3.53;100.00
55590;BME280;41452;42.780;23.116;2023-11-21T08:00:43;94160.19;;;3.55;100.00
55590;BME280;41452;42.780;23.116;2023-11-21T08:03:09;94156.25;;;3.66;100.00
55590;BME280;41452;42.780;23.116;2023-11-21T08:05:34;94169.53;;;3.85;100.00
55590;BME280;41452;42.780;23.116;2023-11-21T08:07:59;94116.28;;;3.67;100.00
55590;BME280;41452;42.780;23.116;2023-11-21T08:10:25;94135.53;;;3.79;100.00
55590;BME280;41452;42.780;23.116;2023-11-21T08:12:51;94163.00;;;4.02;100.00
55590;BME280;41452;42.780;23.116;2023-11-21T08:15:16;94163.84;;;4.09;100.00
55590;BME280;41452;42.780;23.116;2023-11-21T08:17:43;94133.94;;;3.85;100.00
55590;BME280;41452;42.780;23.116;2023-11-21T08:20:09;94142.97;;;3.96;100.00
55590;BME280;41452;42.780;23.116;2023-11-21T08:22:36;94163.03;;;4.15;100.00
55590;BME280;41452;42.780;23.116;2023-11-21T08:25:01;94163.69;;;4.31;100.00
55590;BME280;41452;42.780;23.116;2023-11-21T08:27:29;94160.53;;;4.35;100.00
55590;BME280;41452;42.780;23.116;2023-11-21T08:29:54;94158.88;;;4.21;100.00
55590;BME280;41452;42.780;23.116;2023-11-21T08:32:21;94167.84;;;4.18;100.00
55590;BME280;41452;42.780;23.116;2023-11-21T08:34:47;94163.31;;;4.34;100.00
55590;BME280;41452;42.780;23.116;2023-11-21T08:37:16;94166.72;;;4.41;100.00
55590;BME280;41452;42.780;23.116;2023-11-21T08:39:41;94159.16;;;4.46;100.00
55590;BME280;41452;42.780;23.116;2023-11-21T08:42:07;94118.91;;;4.29;100.00
55590;BME280;41452;42.780;23.116;2023-11-21T08:44:33;94135.97;;;4.51;100.00
55590;BME280;41452;42.780;23.116;2023-11-21T08:46:58;94143.56;;;4.80;100.00
55590;BME280;41452;42.780;23.116;2023-11-21T08:49:24;94144.78;;;5.04;100.00
55590;BME280;41452;42.780;23.116;2023-11-21T08:51:51;94140.19;;;5.19;100.00
55590;BME280;41452;42.780;23.116;2023-11-21T08:54:16;94136.19;;;5.23;100.00
55590;BME280;41452;42.780;23.116;2023-11-21T08:56:43;94123.34;;;5.28;100.00
55590;BME280;41452;42.780;23.116;2023-11-21T08:59:08;94123.56;;;5.13;100.00
55590;BME280;41452;42.780;23.116;2023-11-21T09:01:34;94065.94;;;4.76;100.00
55590;BME280;41452;42.780;23.116;2023-11-21T09:03:59;94104.53;;;5.13;100.00
55590;BME280;41452;42.780;23.116;2023-11-21T09:06:25;94084.94;;;5.04;100.00
55590;BME280;41452;42.780;23.116;2023-11-21T09:08:50;94094.75;;;5.02;100.00
55590;BME280;41452;42.780;23.116;2023-11-21T09:11:16;94032.94;;;4.64;100.00
55590;BME280;41452;42.780;23.116;2023-11-21T09:13:41;94078.91;;;5.17;100.00
55590;BME280;41452;42.780;23.116;2023-11-21T09:16:07;94078.09;;;5.29;100.00
55590;BME280;41452;42.780;23.116;2023-11-21T09:18:33;94070.88;;;5.25;100.00
55590;BME280;41452;42.780;23.116;2023-11-21T09:20:58;94071.47;;;5.20;100.00
55590;BME280;41452;42.780;23.116;2023-11-21T09:23:24;94056.81;;;5.39;100.00
55590;BME280;41452;42.780;23.116;2023-11-21T09:25:49;94033.19;;;5.34;100.00
55590;BME280;41452;42.780;23.116;2023-11-21T09:28:17;94052.19;;;5.55;100.00
55590;BME280;41452;42.780;23.116;2023-11-21T09:30:43;94045.19;;;5.42;100.00
55590;BME280;41452;42.780;23.116;2023-11-21T09:33:08;94041.19;;;5.46;100.00
55590;BME280;41452;42.780;23.116;2023-11-21T09:35:38;94025.75;;;5.51;100.00
55590;BME280;41452;42.780;23.116;2023-11-21T09:38:04;94018.13;;;5.56;100.00
55590;BME280;41452;42.780;23.116;2023-11-21T09:40:35;93991.03;;;5.57;100.00
55590;BME280;41452;42.780;23.116;2023-11-21T09:43:07;93997.47;;;5.55;100.00
55590;BME280;41452;42.780;23.116;2023-11-21T09:45:38;94004.44;;;5.67;100.00
55590;BME280;41452;42.780;23.116;2023-11-21T09:48:05;94008.97;;;5.79;100.00
55590;BME280;41452;42.780;23.116;2023-11-21T09:50:32;93975.97;;;5.66;100.00
55590;BME280;41452;42.780;23.116;2023-11-21T09:55:27;93987.31;;;5.85;100.00
55590;BME280;41452;42.780;23.116;2023-11-21T09:57:57;93945.50;;;5.66;100.00
55590;BME280;41452;42.780;23.116;2023-11-21T10:00:23;93993.88;;;6.26;100.00
55590;BME280;41452;42.780;23.116;2023-11-21T10:02:52;93988.66;;;6.26;100.00
55590;BME280;41452;42.780;23.116;2023-11-21T10:05:18;93998.53;;;6.24;100.00
55590;BME280;41452;42.780;23.116;2023-11-21T10:07:48;93993.88;;;6.26;100.00
55590;BME280;41452;42.780;23.116;2023-11-21T10:10:16;93967.69;;;6.14;100.00
55590;BME280;41452;42.780;23.116;2023-11-21T10:12:43;93983.13;;;6.16;100.00
55590;BME280;41452;42.780;23.116;2023-11-21T10:15:13;93947.53;;;6.03;100.00
55590;BME280;41452;42.780;23.116;2023-11-21T10:17:42;93941.97;;;6.18;100.00
55590;BME280;41452;42.780;23.116;2023-11-21T10:20:13;93963.38;;;6.26;100.00
55590;BME280;41452;42.780;23.116;2023-11-21T10:22:40;93953.16;;;6.25;100.00
55590;BME280;41452;42.780;23.116;2023-11-21T10:25:12;93974.41;;;6.54;100.00
55590;BME280;41452;42.780;23.116;2023-11-21T10:27:42;93969.06;;;6.67;100.00
55590;BME280;41452;42.780;23.116;2023-11-21T10:30:09;93963.28;;;6.65;100.00
55590;BME280;41452;42.780;23.116;2023-11-21T10:32:39;93924.38;;;6.38;100.00
55590;BME280;41452;42.780;23.116;2023-11-21T10:35:07;93940.00;;;6.63;100.00
55590;BME280;41452;42.780;23.116;2023-11-21T10:37:36;93925.75;;;6.41;100.00
55590;BME280;41452;42.780;23.116;2023-11-21T10:40:01;93949.06;;;6.61;100.00
55590;BME280;41452;42.780;23.116;2023-11-21T10:42:27;93950.66;;;6.62;100.00
55590;BME280;41452;42.780;23.116;2023-11-21T10:44:55;93925.75;;;6.41;100.00
55590;BME280;41452;42.780;23.116;2023-11-21T10:47:21;93948.69;;;6.57;100.00
55590;BME280;41452;42.780;23.116;2023-11-21T10:49:51;93912.75;;;6.34;100.00
55590;BME280;41452;42.780;23.116;2023-11-21T10:52:19;93947.63;;;6.65;100.00
55590;BME280;41452;42.780;23.116;2023-11-21T10:54:46;93944.94;;;6.72;100.00
55590;BME280;41452;42.780;23.116;2023-11-21T10:57:17;93938.34;;;6.69;100.00
55590;BME280;41452;42.780;23.116;2023-11-21T10:59:48;93927.63;;;6.77;100.00
55590;BME280;41452;42.780;23.116;2023-11-21T11:02:24;93928.00;;;6.81;99.73
55590;BME280;41452;42.780;23.116;2023-11-21T11:04:53;93919.50;;;6.85;99.16
55590;BME280;41452;42.780;23.116;2023-11-21T11:07:21;93884.13;;;6.71;98.92
55590;BME280;41452;42.780;23.116;2023-11-21T11:09:53;93914.63;;;6.89;98.17
55590;BME280;41452;42.780;23.116;2023-11-21T11:12:18;93910.75;;;6.98;97.45
55590;BME280;41452;42.780;23.116;2023-11-21T11:14:44;93896.66;;;6.81;96.38
55590;BME280;41452;42.780;23.116;2023-11-21T11:17:10;93907.59;;;6.71;98.21
55590;BME280;41452;42.780;23.116;2023-11-21T11:19:36;93874.25;;;6.73;96.69
55590;BME280;41452;42.780;23.116;2023-11-21T11:22:29;93901.94;;;6.93;97.16
55590;BME280;41452;42.780;23.116;2023-11-21T11:28:30;93901.94;;;7.11;97.08
55590;BME280;41452;42.780;23.116;2023-11-21T11:34:38;93911.38;;;7.12;96.76
55590;BME280;41452;42.780;23.116;2023-11-21T11:36:48;93922.84;;;7.11;97.23
55590;BME280;41452;42.780;23.116;2023-11-21T11:39:37;93917.41;;;7.13;98.45
55590;BME280;41452;42.780;23.116;2023-11-21T11:42:06;93914.69;;;7.19;97.70
55590;BME280;41452;42.780;23.116;2023-11-21T11:44:47;93917.69;;;7.23;97.76
55590;BME280;41452;42.780;23.116;2023-11-21T11:47:20;93911.97;;;7.14;98.18
55590;BME280;41452;42.780;23.116;2023-11-21T11:50:15;93931.53;;;7.23;99.09
55590;BME280;41452;42.780;23.116;2023-11-21T11:52:46;93930.75;;;7.23;99.07
55590;BME280;41452;42.780;23.116;2023-11-21T11:55:16;93925.59;;;7.16;99.24
55590;BME280;41452;42.780;23.116;2023-11-21T11:57:46;93926.16;;;7.18;100.00
55590;BME280;41452;42.780;23.116;2023-11-21T12:00:17;93926.38;;;7.17;100.00
55590;BME280;41452;42.780;23.116;2023-11-21T12:02:49;93923.78;;;7.17;100.00
55590;BME280;41452;42.780;23.116;2023-11-21T12:05:16;93918.34;;;7.00;100.00
55590;BME280;41452;42.780;23.116;2023-11-21T12:10:15;93889.34;;;6.90;100.00
55590;BME280;41452;42.780;23.116;2023-11-21T12:12:47;93878.41;;;6.81;100.00
55590;BME280;41452;42.780;23.116;2023-11-21T12:15:13;93875.72;;;6.88;100.00
55590;BME280;41452;42.780;23.116;2023-11-21T12:17:43;93905.66;;;7.03;100.00
55590;BME280;41452;42.780;23.116;2023-11-21T12:20:09;93886.78;;;7.01;100.00
55590;BME280;41452;42.780;23.116;2023-11-21T12:22:49;93869.91;;;6.85;100.00
55590;BME280;41452;42.780;23.116;2023-11-21T12:25:19;93882.59;;;7.00;100.00
55590;BME280;41452;42.780;23.116;2023-11-21T12:27:48;93865.84;;;6.90;100.00
55590;BME280;41452;42.780;23.116;2023-11-21T12:30:16;93873.16;;;6.99;100.00
55590;BME280;41452;42.780;23.116;2023-11-21T12:32:47;93816.56;;;6.63;100.00
55590;BME280;41452;42.780;23.116;2023-11-21T12:35:13;93864.03;;;6.90;100.00
55590;BME280;41452;42.780;23.116;2023-11-21T12:37:39;93860.63;;;6.90;100.00
55590;BME280;41452;42.780;23.116;2023-11-21T12:40:07;93858.81;;;6.90;100.00
55590;BME280;41452;42.780;23.116;2023-11-21T12:42:46;93817.09;;;6.72;100.00
55590;BME280;41452;42.780;23.116;2023-11-21T12:47:43;93824.31;;;6.70;100.00
55590;BME280;41452;42.780;23.116;2023-11-21T12:50:09;93846.34;;;6.92;100.00
55590;BME280;41452;42.780;23.116;2023-11-21T12:52:42;93794.09;;;6.62;100.00
55590;BME280;41452;42.780;23.116;2023-11-21T12:55:13;93839.75;;;6.90;100.00
55590;BME280;41452;42.780;23.116;2023-11-21T12:57:42;93848.16;;;6.92;100.00
55590;BME280;41452;42.780;23.116;2023-11-21T13:00:08;93822.81;;;6.80;100.00
55590;BME280;41452;42.780;23.116;2023-11-21T13:02:38;93841.91;;;6.93;100.00
55590;BME280;41452;42.780;23.116;2023-11-21T13:05:07;93837.94;;;6.90;100.00